sensor_id;sensor_type;location;lat;lon;timestamp;temperature;humidity
2523;DHT22;1272;53.332;9.860;2023-08-07T00:00:23;15.70;99.90
2523;DHT22;1272;53.332;9.860;2023-08-07T00:02:49;15.80;99.90
2523;DHT22;1272;53.332;9.860;2023-08-07T00:05:15;15.70;99.90
2523;DHT22;1272;53.332;9.860;2023-08-07T00:07:42;15.70;99.90
2523;DHT22;1272;53.332;9.860;2023-08-07T00:10:08;15.70;99.90
2523;DHT22;1272;53.332;9.860;2023-08-07T00:12:34;15.80;99.90
2523;DHT22;1272;53.332;9.860;2023-08-07T00:15:00;15.70;99.90
2523;DHT22;1272;53.332;9.860;2023-08-07T00:17:26;15.70;99.90
2523;DHT22;1272;53.332;9.860;2023-08-07T00:19:52;15.70;99.90
2523;DHT22;1272;53.332;9.860;2023-08-07T00:22:17;15.70;99.90
2523;DHT22;1272;53.332;9.860;2023-08-07T00:24:43;15.60;99.90
2523;DHT22;1272;53.332;9.860;2023-08-07T00:27:09;15.70;99.90
2523;DHT22;1272;53.332;9.860;2023-08-07T00:29:38;15.70;99.90
2523;DHT22;1272;53.332;9.860;2023-08-07T00:32:04;15.60;99.90
2523;DHT22;1272;53.332;9.860;2023-08-07T00:34:30;15.60;99.90
2523;DHT22;1272;53.332;9.860;2023-08-07T00:36:56;15.70;99.90
2523;DHT22;1272;53.332;9.860;2023-08-07T00:39:22;15.60;99.90
2523;DHT22;1272;53.332;9.860;2023-08-07T00:41:48;15.60;99.90
2523;DHT22;1272;53.332;9.860;2023-08-07T00:44:13;15.60;99.90
2523;DHT22;1272;53.332;9.860;2023-08-07T00:46:39;15.60;99.90
2523;DHT22;1272;53.332;9.860;2023-08-07T00:49:06;15.60;99.90
2523;DHT22;1272;53.332;9.860;2023-08-07T00:51:33;15.60;99.90
2523;DHT22;1272;53.332;9.860;2023-08-07T00:54:00;15.50;99.90
2523;DHT22;1272;53.332;9.860;2023-08-07T00:56:28;15.60;99.90
2523;DHT22;1272;53.332;9.860;2023-08-07T00:58:53;15.50;99.90
2523;DHT22;1272;53.332;9.860;2023-08-07T01:01:19;15.50;99.90
2523;DHT22;1272;53.332;9.860;2023-08-07T01:03:45;15.50;99.90
2523;DHT22;1272;53.332;9.860;2023-08-07T01:06:11;15.50;99.90
2523;DHT22;1272;53.332;9.860;2023-08-07T01:08:36;15.50;99.90
2523;DHT22;1272;53.332;9.860;2023-08-07T01:11:41;15.50;99.90
2523;DHT22;1272;53.332;9.860;2023-08-07T01:19:52;15.50;99.90
2523;DHT22;1272;53.332;9.860;2023-08-07T01:22:20;15.50;99.90
2523;DHT22;1272;53.332;9.860;2023-08-07T01:24:48;15.40;99.90
2523;DHT22;1272;53.332;9.860;2023-08-07T01:32:09;15.40;99.90
2523;DHT22;1272;53.332;9.860;2023-08-07T01:34:37;15.40;99.90
2523;DHT22;1272;53.332;9.860;2023-08-07T01:37:07;15.40;99.90
2523;DHT22;1272;53.332;9.860;2023-08-07T01:39:33;15.40;99.90
2523;DHT22;1272;53.332;9.860;2023-08-07T01:42:00;15.40;99.90
2523;DHT22;1272;53.332;9.860;2023-08-07T01:44:28;15.40;99.90
2523;DHT22;1272;53.332;9.860;2023-08-07T01:46:54;15.40;99.90
2523;DHT22;1272;53.332;9.860;2023-08-07T01:49:20;15.40;99.90
2523;DHT22;1272;53.332;9.860;2023-08-07T01:51:45;15.40;99.90
2523;DHT22;1272;53.332;9.860;2023-08-07T01:54:11;15.40;99.90
2523;DHT22;1272;53.332;9.860;2023-08-07T01:56:37;15.40;99.90
2523;DHT22;1272;53.332;9.860;2023-08-07T01:59:02;15.40;99.90
2523;DHT22;1272;53.332;9.860;2023-08-07T02:01:28;15.40;99.90
2523;DHT22;1272;53.332;9.860;2023-08-07T02:03:54;15.40;99.90
2523;DHT22;1272;53.332;9.860;2023-08-07T02:06:19;15.40;99.90
2523;DHT22;1272;53.332;9.860;2023-08-07T02:08:45;15.40;99.90
2523;DHT22;1272;53.332;9.860;2023-08-07T02:11:11;15.40;99.90
2523;DHT22;1272;53.332;9.860;2023-08-07T02:13:36;15.40;99.90
2523;DHT22;1272;53.332;9.860;2023-08-07T02:16:02;15.40;99.90
2523;DHT22;1272;53.332;9.860;2023-08-07T02:18:28;15.40;99.90
2523;DHT22;1272;53.332;9.860;2023-08-07T02:20:53;15.50;99.90
2523;DHT22;1272;53.332;9.860;2023-08-07T02:23:19;15.40;99.90
2523;DHT22;1272;53.332;9.860;2023-08-07T02:25:45;15.40;99.90
2523;DHT22;1272;53.332;9.860;2023-08-07T02:28:11;15.50;99.90
2523;DHT22;1272;53.332;9.860;2023-08-07T02:30:36;15.40;99.90
2523;DHT22;1272;53.332;9.860;2023-08-07T02:33:02;15.40;99.90
2523;DHT22;1272;53.332;9.860;2023-08-07T02:35:28;15.50;99.90
2523;DHT22;1272;53.332;9.860;2023-08-07T02:37:54;15.40;99.90
2523;DHT22;1272;53.332;9.860;2023-08-07T02:40:19;15.40;99.90
2523;DHT22;1272;53.332;9.860;2023-08-07T02:42:45;15.40;99.90
2523;DHT22;1272;53.332;9.860;2023-08-07T02:45:11;15.40;99.90
2523;DHT22;1272;53.332;9.860;2023-08-07T02:47:36;15.40;99.90
2523;DHT22;1272;53.332;9.860;2023-08-07T02:50:02;15.40;99.90
2523;DHT22;1272;53.332;9.860;2023-08-07T02:52:29;15.40;99.90
2523;DHT22;1272;53.332;9.860;2023-08-07T02:54:55;15.30;99.90
2523;DHT22;1272;53.332;9.860;2023-08-07T02:57:21;15.30;99.90
2523;DHT22;1272;53.332;9.860;2023-08-07T02:59:46;15.30;99.90
2523;DHT22;1272;53.332;9.860;2023-08-07T03:02:12;15.30;99.90
2523;DHT22;1272;53.332;9.860;2023-08-07T03:04:38;15.30;99.90
2523;DHT22;1272;53.332;9.860;2023-08-07T03:07:03;15.30;99.90
2523;DHT22;1272;53.332;9.860;2023-08-07T03:09:29;15.30;99.90
2523;DHT22;1272;53.332;9.860;2023-08-07T03:11:55;15.30;99.90
2523;DHT22;1272;53.332;9.860;2023-08-07T03:14:21;15.30;99.90
2523;DHT22;1272;53.332;9.860;2023-08-07T03:16:46;15.30;99.90
2523;DHT22;1272;53.332;9.860;2023-08-07T03:19:12;15.30;99.90
2523;DHT22;1272;53.332;9.860;2023-08-07T03:21:38;15.30;99.90
2523;DHT22;1272;53.332;9.860;2023-08-07T03:24:04;15.20;99.90
2523;DHT22;1272;53.332;9.860;2023-08-07T03:26:30;15.30;99.90
2523;DHT22;1272;53.332;9.860;2023-08-07T03:28:55;15.20;99.90
2523;DHT22;1272;53.332;9.860;2023-08-07T03:31:21;15.20;99.90
2523;DHT22;1272;53.332;9.860;2023-08-07T03:33:47;15.20;99.90
2523;DHT22;1272;53.332;9.860;2023-08-07T03:36:12;15.20;99.90
2523;DHT22;1272;53.332;9.860;2023-08-07T03:38:38;15.20;99.90
2523;DHT22;1272;53.332;9.860;2023-08-07T03:41:04;15.20;99.90
2523;DHT22;1272;53.332;9.860;2023-08-07T03:43:29;15.20;99.90
2523;DHT22;1272;53.332;9.860;2023-08-07T03:45:56;15.20;99.90
2523;DHT22;1272;53.332;9.860;2023-08-07T03:48:24;15.20;99.90
2523;DHT22;1272;53.332;9.860;2023-08-07T03:50:50;15.20;99.90
2523;DHT22;1272;53.332;9.860;2023-08-07T03:53:16;15.20;99.90
2523;DHT22;1272;53.332;9.860;2023-08-07T03:55:41;15.20;99.90
2523;DHT22;1272;53.332;9.860;2023-08-07T03:58:07;15.10;99.90
2523;DHT22;1272;53.332;9.860;2023-08-07T04:00:33;15.20;99.90
2523;DHT22;1272;53.332;9.860;2023-08-07T04:02:59;15.20;99.90
2523;DHT22;1272;53.332;9.860;2023-08-07T04:05:25;15.10;99.90
2523;DHT22;1272;53.332;9.860;2023-08-07T04:07:50;15.10;99.90
2523;DHT22;1272;53.332;9.860;2023-08-07T04:10:16;15.10;99.90
2523;DHT22;1272;53.332;9.860;2023-08-07T04:12:42;15.10;99.90
2523;DHT22;1272;53.332;9.860;2023-08-07T04:15:08;15.10;99.90
2523;DHT22;1272;53.332;9.860;2023-08-07T04:17:35;15.20;99.90
2523;DHT22;1272;53.332;9.860;2023-08-07T04:20:01;15.20;99.90
2523;DHT22;1272;53.332;9.860;2023-08-07T04:22:28;15.20;99.90
2523;DHT22;1272;53.332;9.860;2023-08-07T04:24:54;15.10;99.90
2523;DHT22;1272;53.332;9.860;2023-08-07T04:27:20;15.10;99.90
2523;DHT22;1272;53.332;9.860;2023-08-07T04:29:45;15.10;99.90
2523;DHT22;1272;53.332;9.860;2023-08-07T04:32:11;15.10;99.90
2523;DHT22;1272;53.332;9.860;2023-08-07T04:34:37;15.10;99.90
2523;DHT22;1272;53.332;9.860;2023-08-07T04:37:02;15.10;99.90
2523;DHT22;1272;53.332;9.860;2023-08-07T04:39:28;15.10;99.90
2523;DHT22;1272;53.332;9.860;2023-08-07T04:41:54;15.20;99.90
2523;DHT22;1272;53.332;9.860;2023-08-07T04:44:19;15.20;99.90
2523;DHT22;1272;53.332;9.860;2023-08-07T04:46:45;15.20;99.90
2523;DHT22;1272;53.332;9.860;2023-08-07T04:49:11;15.20;99.90
2523;DHT22;1272;53.332;9.860;2023-08-07T04:51:36;15.20;99.90
2523;DHT22;1272;53.332;9.860;2023-08-07T04:54:02;15.20;99.90
2523;DHT22;1272;53.332;9.860;2023-08-07T04:56:28;15.10;99.90
2523;DHT22;1272;53.332;9.860;2023-08-07T04:58:53;15.10;99.90
2523;DHT22;1272;53.332;9.860;2023-08-07T05:01:19;15.20;99.90
2523;DHT22;1272;53.332;9.860;2023-08-07T05:03:45;15.20;99.90
2523;DHT22;1272;53.332;9.860;2023-08-07T05:06:10;15.20;99.90
2523;DHT22;1272;53.332;9.860;2023-08-07T05:08:36;15.20;99.90
2523;DHT22;1272;53.332;9.860;2023-08-07T05:11:02;15.10;99.90
2523;DHT22;1272;53.332;9.860;2023-08-07T05:13:27;15.10;99.90
2523;DHT22;1272;53.332;9.860;2023-08-07T05:15:53;15.20;99.90
2523;DHT22;1272;53.332;9.860;2023-08-07T05:18:18;15.20;99.90
2523;DHT22;1272;53.332;9.860;2023-08-07T05:20:44;15.20;99.90
2523;DHT22;1272;53.332;9.860;2023-08-07T05:23:10;15.20;99.90
2523;DHT22;1272;53.332;9.860;2023-08-07T05:25:36;15.20;99.90
2523;DHT22;1272;53.332;9.860;2023-08-07T05:28:03;15.20;99.90
2523;DHT22;1272;53.332;9.860;2023-08-07T05:30:28;15.20;99.90
2523;DHT22;1272;53.332;9.860;2023-08-07T05:32:54;15.20;99.90
2523;DHT22;1272;53.332;9.860;2023-08-07T05:35:20;15.20;99.90
2523;DHT22;1272;53.332;9.860;2023-08-07T05:37:45;15.20;99.90
2523;DHT22;1272;53.332;9.860;2023-08-07T05:40:11;15.20;99.90
2523;DHT22;1272;53.332;9.860;2023-08-07T05:42:37;15.20;99.90
2523;DHT22;1272;53.332;9.860;2023-08-07T05:45:03;15.20;99.90
2523;DHT22;1272;53.332;9.860;2023-08-07T05:47:29;15.20;99.90
2523;DHT22;1272;53.332;9.860;2023-08-07T05:49:55;15.30;99.90
2523;DHT22;1272;53.332;9.860;2023-08-07T05:52:20;15.40;99.90
2523;DHT22;1272;53.332;9.860;2023-08-07T05:54:46;15.40;99.90
2523;DHT22;1272;53.332;9.860;2023-08-07T05:57:13;15.30;99.90
2523;DHT22;1272;53.332;9.860;2023-08-07T05:59:38;15.40;99.90
2523;DHT22;1272;53.332;9.860;2023-08-07T06:02:06;15.30;99.90
2523;DHT22;1272;53.332;9.860;2023-08-07T06:04:32;15.40;99.90
2523;DHT22;1272;53.332;9.860;2023-08-07T06:06:57;15.40;99.90
2523;DHT22;1272;53.332;9.860;2023-08-07T06:09:23;15.50;99.90
2523;DHT22;1272;53.332;9.860;2023-08-07T06:11:49;15.50;99.90
2523;DHT22;1272;53.332;9.860;2023-08-07T06:14:14;15.60;99.90
2523;DHT22;1272;53.332;9.860;2023-08-07T06:16:40;15.60;99.90
2523;DHT22;1272;53.332;9.860;2023-08-07T06:19:06;15.70;99.90
2523;DHT22;1272;53.332;9.860;2023-08-07T06:21:32;15.70;99.90
2523;DHT22;1272;53.332;9.860;2023-08-07T06:23:58;15.80;99.90
2523;DHT22;1272;53.332;9.860;2023-08-07T06:26:24;15.90;99.90
2523;DHT22;1272;53.332;9.860;2023-08-07T06:28:49;15.90;99.90
2523;DHT22;1272;53.332;9.860;2023-08-07T06:31:16;16.00;99.90
2523;DHT22;1272;53.332;9.860;2023-08-07T06:33:42;16.00;99.90
2523;DHT22;1272;53.332;9.860;2023-08-07T06:36:08;16.10;99.90
2523;DHT22;1272;53.332;9.860;2023-08-07T06:38:36;16.10;99.90
2523;DHT22;1272;53.332;9.860;2023-08-07T06:41:02;16.10;99.90
2523;DHT22;1272;53.332;9.860;2023-08-07T06:43:28;16.10;99.90
2523;DHT22;1272;53.332;9.860;2023-08-07T06:45:55;16.10;99.90
2523;DHT22;1272;53.332;9.860;2023-08-07T06:48:21;16.10;99.90
2523;DHT22;1272;53.332;9.860;2023-08-07T06:50:48;16.20;99.90
2523;DHT22;1272;53.332;9.860;2023-08-07T06:53:13;16.20;99.90
2523;DHT22;1272;53.332;9.860;2023-08-07T06:55:41;16.30;99.90
2523;DHT22;1272;53.332;9.860;2023-08-07T06:58:07;16.30;99.90
2523;DHT22;1272;53.332;9.860;2023-08-07T07:00:33;16.30;99.90
2523;DHT22;1272;53.332;9.860;2023-08-07T07:03:01;16.30;99.90
2523;DHT22;1272;53.332;9.860;2023-08-07T07:05:26;16.40;99.90
2523;DHT22;1272;53.332;9.860;2023-08-07T07:07:52;16.40;99.90
2523;DHT22;1272;53.332;9.860;2023-08-07T07:10:19;16.40;99.90
2523;DHT22;1272;53.332;9.860;2023-08-07T07:12:45;16.40;99.90
2523;DHT22;1272;53.332;9.860;2023-08-07T07:15:11;16.40;99.90
2523;DHT22;1272;53.332;9.860;2023-08-07T07:17:37;16.40;99.90
2523;DHT22;1272;53.332;9.860;2023-08-07T07:20:03;16.40;99.90
2523;DHT22;1272;53.332;9.860;2023-08-07T07:22:29;16.40;99.90
2523;DHT22;1272;53.332;9.860;2023-08-07T07:24:55;16.40;99.90
2523;DHT22;1272;53.332;9.860;2023-08-07T07:27:20;16.50;99.90
2523;DHT22;1272;53.332;9.860;2023-08-07T07:29:48;16.50;99.90
2523;DHT22;1272;53.332;9.860;2023-08-07T07:32:13;16.50;99.90
2523;DHT22;1272;53.332;9.860;2023-08-07T07:34:39;16.60;62.30
2523;DHT22;1272;53.332;9.860;2023-08-07T07:37:05;16.70;20.40
2523;DHT22;1272;53.332;9.860;2023-08-07T07:39:31;16.90;1.00
2523;DHT22;1272;53.332;9.860;2023-08-07T07:41:56;17.00;1.00
2523;DHT22;1272;53.332;9.860;2023-08-07T07:44:22;17.10;1.00
2523;DHT22;1272;53.332;9.860;2023-08-07T07:46:48;17.10;1.00
2523;DHT22;1272;53.332;9.860;2023-08-07T07:49:14;17.10;99.90
2523;DHT22;1272;53.332;9.860;2023-08-07T07:51:39;17.20;1.00
2523;DHT22;1272;53.332;9.860;2023-08-07T07:54:06;17.20;1.00
2523;DHT22;1272;53.332;9.860;2023-08-07T07:56:31;17.30;84.00
2523;DHT22;1272;53.332;9.860;2023-08-07T07:58:57;17.30;99.90
2523;DHT22;1272;53.332;9.860;2023-08-07T08:01:23;17.30;99.90
2523;DHT22;1272;53.332;9.860;2023-08-07T08:03:49;17.40;99.90
2523;DHT22;1272;53.332;9.860;2023-08-07T08:06:14;17.40;99.90
2523;DHT22;1272;53.332;9.860;2023-08-07T08:08:40;17.40;1.00
2523;DHT22;1272;53.332;9.860;2023-08-07T08:11:08;17.40;1.00
2523;DHT22;1272;53.332;9.860;2023-08-07T08:13:33;17.40;1.00
2523;DHT22;1272;53.332;9.860;2023-08-07T08:16:01;17.40;99.90
2523;DHT22;1272;53.332;9.860;2023-08-07T08:18:26;17.50;99.90
2523;DHT22;1272;53.332;9.860;2023-08-07T08:20:54;17.60;99.90
2523;DHT22;1272;53.332;9.860;2023-08-07T08:23:19;17.70;86.50
2523;DHT22;1272;53.332;9.860;2023-08-07T08:25:45;17.60;99.90
2523;DHT22;1272;53.332;9.860;2023-08-07T08:28:11;17.50;1.00
2523;DHT22;1272;53.332;9.860;2023-08-07T08:30:36;17.40;1.00
2523;DHT22;1272;53.332;9.860;2023-08-07T08:33:02;17.20;80.50
2523;DHT22;1272;53.332;9.860;2023-08-07T08:35:28;17.20;99.90
2523;DHT22;1272;53.332;9.860;2023-08-07T08:37:53;17.10;1.00
2523;DHT22;1272;53.332;9.860;2023-08-07T08:40:19;17.10;1.00
2523;DHT22;1272;53.332;9.860;2023-08-07T08:42:45;17.10;99.90
2523;DHT22;1272;53.332;9.860;2023-08-07T08:45:13;17.20;99.90
2523;DHT22;1272;53.332;9.860;2023-08-07T08:47:39;17.20;1.00
2523;DHT22;1272;53.332;9.860;2023-08-07T08:50:10;17.30;8.20
2523;DHT22;1272;53.332;9.860;2023-08-07T08:52:42;17.30;10.70
2523;DHT22;1272;53.332;9.860;2023-08-07T08:55:09;17.40;1.00
2523;DHT22;1272;53.332;9.860;2023-08-07T08:57:37;17.50;99.90
2523;DHT22;1272;53.332;9.860;2023-08-07T09:00:08;17.60;1.00
2523;DHT22;1272;53.332;9.860;2023-08-07T09:02:49;17.70;1.00
2523;DHT22;1272;53.332;9.860;2023-08-07T09:05:16;17.80;1.00
2523;DHT22;1272;53.332;9.860;2023-08-07T09:07:43;18.00;1.00
2523;DHT22;1272;53.332;9.860;2023-08-07T09:10:10;18.10;28.00
2523;DHT22;1272;53.332;9.860;2023-08-07T09:12:45;18.00;1.00
2523;DHT22;1272;53.332;9.860;2023-08-07T09:15:11;18.00;12.10
2523;DHT22;1272;53.332;9.860;2023-08-07T09:17:40;17.90;1.00
2523;DHT22;1272;53.332;9.860;2023-08-07T09:20:08;18.00;1.00
2523;DHT22;1272;53.332;9.860;2023-08-07T09:22:40;17.90;99.90
2523;DHT22;1272;53.332;9.860;2023-08-07T09:25:06;17.80;12.70
2523;DHT22;1272;53.332;9.860;2023-08-07T09:27:32;17.70;1.00
2523;DHT22;1272;53.332;9.860;2023-08-07T09:29:58;17.70;1.00
2523;DHT22;1272;53.332;9.860;2023-08-07T09:32:24;17.80;1.00
2523;DHT22;1272;53.332;9.860;2023-08-07T09:34:51;17.80;1.00
2523;DHT22;1272;53.332;9.860;2023-08-07T09:37:19;17.80;1.00
2523;DHT22;1272;53.332;9.860;2023-08-07T09:39:46;17.80;1.00
2523;DHT22;1272;53.332;9.860;2023-08-07T09:42:16;18.00;99.90
2523;DHT22;1272;53.332;9.860;2023-08-07T09:44:42;18.10;99.90
2523;DHT22;1272;53.332;9.860;2023-08-07T09:47:16;18.10;99.90
2523;DHT22;1272;53.332;9.860;2023-08-07T09:49:43;18.20;99.90
2523;DHT22;1272;53.332;9.860;2023-08-07T09:52:10;18.20;99.90
2523;DHT22;1272;53.332;9.860;2023-08-07T09:54:36;18.20;99.90
2523;DHT22;1272;53.332;9.860;2023-08-07T09:57:03;18.20;99.90
2523;DHT22;1272;53.332;9.860;2023-08-07T09:59:29;18.40;99.90
2523;DHT22;1272;53.332;9.860;2023-08-07T10:01:55;18.50;99.90
2523;DHT22;1272;53.332;9.860;2023-08-07T10:04:25;18.50;99.90
2523;DHT22;1272;53.332;9.860;2023-08-07T10:06:51;18.50;99.90
2523;DHT22;1272;53.332;9.860;2023-08-07T10:09:18;18.50;99.90
2523;DHT22;1272;53.332;9.860;2023-08-07T10:11:44;18.40;99.90
2523;DHT22;1272;53.332;9.860;2023-08-07T10:14:11;18.30;99.90
2523;DHT22;1272;53.332;9.860;2023-08-07T10:16:39;18.20;99.90
2523;DHT22;1272;53.332;9.860;2023-08-07T10:19:07;18.20;99.90
2523;DHT22;1272;53.332;9.860;2023-08-07T10:21:35;18.30;99.90
2523;DHT22;1272;53.332;9.860;2023-08-07T10:24:04;18.60;99.90
2523;DHT22;1272;53.332;9.860;2023-08-07T10:26:32;18.80;99.90
2523;DHT22;1272;53.332;9.860;2023-08-07T10:29:00;19.00;99.90
2523;DHT22;1272;53.332;9.860;2023-08-07T10:31:27;19.10;99.90
2523;DHT22;1272;53.332;9.860;2023-08-07T10:33:54;19.30;99.90
2523;DHT22;1272;53.332;9.860;2023-08-07T10:36:20;19.40;99.90
2523;DHT22;1272;53.332;9.860;2023-08-07T10:38:49;19.40;84.30
2523;DHT22;1272;53.332;9.860;2023-08-07T10:41:18;19.30;99.90
2523;DHT22;1272;53.332;9.860;2023-08-07T10:43:45;19.00;99.90
2523;DHT22;1272;53.332;9.860;2023-08-07T10:46:14;18.90;99.90
2523;DHT22;1272;53.332;9.860;2023-08-07T10:48:41;18.70;99.90
2523;DHT22;1272;53.332;9.860;2023-08-07T10:51:07;18.60;99.90
2523;DHT22;1272;53.332;9.860;2023-08-07T10:53:39;18.80;99.90
2523;DHT22;1272;53.332;9.860;2023-08-07T10:56:09;19.10;99.90
2523;DHT22;1272;53.332;9.860;2023-08-07T10:58:36;19.30;99.90
2523;DHT22;1272;53.332;9.860;2023-08-07T11:04:12;19.10;99.90
2523;DHT22;1272;53.332;9.860;2023-08-07T11:06:39;19.00;99.90
2523;DHT22;1272;53.332;9.860;2023-08-07T11:09:07;18.80;99.90
2523;DHT22;1272;53.332;9.860;2023-08-07T11:11:44;18.90;99.90
2523;DHT22;1272;53.332;9.860;2023-08-07T11:14:15;19.00;99.90
2523;DHT22;1272;53.332;9.860;2023-08-07T11:16:42;19.30;99.90
2523;DHT22;1272;53.332;9.860;2023-08-07T11:19:08;19.40;99.90
2523;DHT22;1272;53.332;9.860;2023-08-07T11:21:35;19.40;99.90
2523;DHT22;1272;53.332;9.860;2023-08-07T11:24:01;19.40;99.90
2523;DHT22;1272;53.332;9.860;2023-08-07T11:26:27;19.10;99.90
2523;DHT22;1272;53.332;9.860;2023-08-07T11:28:56;18.80;99.90
2523;DHT22;1272;53.332;9.860;2023-08-07T11:31:23;18.50;99.90
2523;DHT22;1272;53.332;9.860;2023-08-07T11:33:55;18.40;99.90
2523;DHT22;1272;53.332;9.860;2023-08-07T11:36:22;18.30;99.90
2523;DHT22;1272;53.332;9.860;2023-08-07T11:38:48;18.30;99.90
2523;DHT22;1272;53.332;9.860;2023-08-07T11:41:16;18.50;1.00
2523;DHT22;1272;53.332;9.860;2023-08-07T11:43:42;18.70;99.90
2523;DHT22;1272;53.332;9.860;2023-08-07T11:46:11;18.80;99.90
2523;DHT22;1272;53.332;9.860;2023-08-07T11:48:38;18.60;1.00
2523;DHT22;1272;53.332;9.860;2023-08-07T11:51:05;18.20;99.90
2523;DHT22;1272;53.332;9.860;2023-08-07T11:53:34;18.00;99.90
2523;DHT22;1272;53.332;9.860;2023-08-07T11:56:02;17.80;99.90
2523;DHT22;1272;53.332;9.860;2023-08-07T11:58:37;17.80;1.00
2523;DHT22;1272;53.332;9.860;2023-08-07T12:01:05;17.80;1.00
2523;DHT22;1272;53.332;9.860;2023-08-07T12:03:36;18.10;1.00
2523;DHT22;1272;53.332;9.860;2023-08-07T12:06:05;18.40;99.90
2523;DHT22;1272;53.332;9.860;2023-08-07T12:08:41;18.50;99.90
2523;DHT22;1272;53.332;9.860;2023-08-07T12:11:09;18.40;99.90
2523;DHT22;1272;53.332;9.860;2023-08-07T12:13:40;18.30;99.90
2523;DHT22;1272;53.332;9.860;2023-08-07T12:16:07;18.30;1.00
2523;DHT22;1272;53.332;9.860;2023-08-07T12:18:33;18.40;99.90
2523;DHT22;1272;53.332;9.860;2023-08-07T12:21:04;18.50;99.90
2523;DHT22;1272;53.332;9.860;2023-08-07T12:23:35;18.50;99.90
2523;DHT22;1272;53.332;9.860;2023-08-07T12:26:01;18.50;99.90
2523;DHT22;1272;53.332;9.860;2023-08-07T12:28:27;18.50;99.90
2523;DHT22;1272;53.332;9.860;2023-08-07T12:30:53;18.50;99.90
2523;DHT22;1272;53.332;9.860;2023-08-07T12:33:19;18.40;99.90
2523;DHT22;1272;53.332;9.860;2023-08-07T12:35:45;18.40;99.90
2523;DHT22;1272;53.332;9.860;2023-08-07T12:38:11;18.40;99.90
2523;DHT22;1272;53.332;9.860;2023-08-07T12:40:39;18.50;99.90
2523;DHT22;1272;53.332;9.860;2023-08-07T12:43:05;18.60;99.90
2523;DHT22;1272;53.332;9.860;2023-08-07T12:45:32;18.70;99.90
2523;DHT22;1272;53.332;9.860;2023-08-07T12:48:01;19.00;99.90
2523;DHT22;1272;53.332;9.860;2023-08-07T12:50:28;19.30;99.90
2523;DHT22;1272;53.332;9.860;2023-08-07T12:52:54;19.50;99.90
2523;DHT22;1272;53.332;9.860;2023-08-07T12:55:19;19.70;50.90
2523;DHT22;1272;53.332;9.860;2023-08-07T12:57:45;19.90;29.50
2523;DHT22;1272;53.332;9.860;2023-08-07T13:00:12;20.00;17.40
2523;DHT22;1272;53.332;9.860;2023-08-07T13:02:45;19.90;15.50
2523;DHT22;1272;53.332;9.860;2023-08-07T13:05:12;19.80;16.10
2523;DHT22;1272;53.332;9.860;2023-08-07T13:07:39;19.60;17.00
2523;DHT22;1272;53.332;9.860;2023-08-07T13:10:06;19.40;6.30
2523;DHT22;1272;53.332;9.860;2023-08-07T13:12:36;19.30;21.50
2523;DHT22;1272;53.332;9.860;2023-08-07T13:15:03;19.20;42.80
2523;DHT22;1272;53.332;9.860;2023-08-07T13:17:30;19.20;42.10
2523;DHT22;1272;53.332;9.860;2023-08-07T13:19:56;19.20;25.20
2523;DHT22;1272;53.332;9.860;2023-08-07T13:22:22;19.20;34.50
2523;DHT22;1272;53.332;9.860;2023-08-07T13:24:47;19.10;99.90
2523;DHT22;1272;53.332;9.860;2023-08-07T13:27:13;19.10;99.90
2523;DHT22;1272;53.332;9.860;2023-08-07T13:29:38;18.90;99.90
2523;DHT22;1272;53.332;9.860;2023-08-07T13:32:05;18.60;99.90
2523;DHT22;1272;53.332;9.860;2023-08-07T13:34:38;18.30;99.90
2523;DHT22;1272;53.332;9.860;2023-08-07T13:37:04;17.90;99.90
2523;DHT22;1272;53.332;9.860;2023-08-07T13:39:30;17.80;1.00
2523;DHT22;1272;53.332;9.860;2023-08-07T13:41:56;17.60;1.00
2523;DHT22;1272;53.332;9.860;2023-08-07T13:44:22;17.40;99.90
2523;DHT22;1272;53.332;9.860;2023-08-07T13:46:48;17.40;21.90
2523;DHT22;1272;53.332;9.860;2023-08-07T13:49:14;17.50;24.30
2523;DHT22;1272;53.332;9.860;2023-08-07T13:51:41;17.80;99.90
2523;DHT22;1272;53.332;9.860;2023-08-07T13:54:07;17.90;1.00
2523;DHT22;1272;53.332;9.860;2023-08-07T13:56:33;18.10;1.00
2523;DHT22;1272;53.332;9.860;2023-08-07T13:58:59;18.40;1.00
2523;DHT22;1272;53.332;9.860;2023-08-07T14:01:26;18.60;99.90
2523;DHT22;1272;53.332;9.860;2023-08-07T14:03:52;18.80;99.90
2523;DHT22;1272;53.332;9.860;2023-08-07T14:06:17;18.60;99.90
2523;DHT22;1272;53.332;9.860;2023-08-07T14:08:43;18.50;99.90
2523;DHT22;1272;53.332;9.860;2023-08-07T14:11:09;18.30;99.90
2523;DHT22;1272;53.332;9.860;2023-08-07T14:13:34;18.20;99.90
2523;DHT22;1272;53.332;9.860;2023-08-07T14:16:00;18.20;99.90
2523;DHT22;1272;53.332;9.860;2023-08-07T14:18:26;18.20;99.90
2523;DHT22;1272;53.332;9.860;2023-08-07T14:20:52;18.10;99.90
2523;DHT22;1272;53.332;9.860;2023-08-07T14:23:18;18.10;99.90
2523;DHT22;1272;53.332;9.860;2023-08-07T14:25:44;18.30;99.90
2523;DHT22;1272;53.332;9.860;2023-08-07T14:28:10;18.50;99.90
2523;DHT22;1272;53.332;9.860;2023-08-07T14:30:36;18.50;99.90
2523;DHT22;1272;53.332;9.860;2023-08-07T14:33:02;18.50;66.10
2523;DHT22;1272;53.332;9.860;2023-08-07T14:35:28;18.40;99.90
2523;DHT22;1272;53.332;9.860;2023-08-07T14:37:53;18.30;97.70
2523;DHT22;1272;53.332;9.860;2023-08-07T14:40:19;18.30;99.90
2523;DHT22;1272;53.332;9.860;2023-08-07T14:42:45;18.10;99.90
2523;DHT22;1272;53.332;9.860;2023-08-07T14:45:11;17.90;99.90
2523;DHT22;1272;53.332;9.860;2023-08-07T14:47:36;17.70;99.90
2523;DHT22;1272;53.332;9.860;2023-08-07T14:50:02;17.70;99.90
2523;DHT22;1272;53.332;9.860;2023-08-07T14:52:28;17.60;99.90
2523;DHT22;1272;53.332;9.860;2023-08-07T14:54:54;17.60;99.90
2523;DHT22;1272;53.332;9.860;2023-08-07T14:57:22;17.80;99.90
2523;DHT22;1272;53.332;9.860;2023-08-07T14:59:48;17.80;99.90
2523;DHT22;1272;53.332;9.860;2023-08-07T15:02:14;17.80;99.90
2523;DHT22;1272;53.332;9.860;2023-08-07T15:04:40;17.80;99.90
2523;DHT22;1272;53.332;9.860;2023-08-07T15:07:05;17.70;99.90
2523;DHT22;1272;53.332;9.860;2023-08-07T15:09:31;17.50;99.90
2523;DHT22;1272;53.332;9.860;2023-08-07T15:11:57;17.40;99.90
2523;DHT22;1272;53.332;9.860;2023-08-07T15:14:22;17.40;99.90
2523;DHT22;1272;53.332;9.860;2023-08-07T15:16:48;17.70;99.90
2523;DHT22;1272;53.332;9.860;2023-08-07T15:19:14;17.80;99.90
2523;DHT22;1272;53.332;9.860;2023-08-07T15:21:40;17.70;99.90
2523;DHT22;1272;53.332;9.860;2023-08-07T15:24:05;17.60;99.90
2523;DHT22;1272;53.332;9.860;2023-08-07T15:26:31;17.50;99.90
2523;DHT22;1272;53.332;9.860;2023-08-07T15:28:57;17.40;99.90
2523;DHT22;1272;53.332;9.860;2023-08-07T15:31:22;17.30;99.90
2523;DHT22;1272;53.332;9.860;2023-08-07T15:33:48;17.20;99.90
2523;DHT22;1272;53.332;9.860;2023-08-07T15:36:16;17.20;99.90
2523;DHT22;1272;53.332;9.860;2023-08-07T15:38:42;17.30;99.90
2523;DHT22;1272;53.332;9.860;2023-08-07T15:41:10;17.50;99.90
2523;DHT22;1272;53.332;9.860;2023-08-07T15:43:36;17.70;99.90
2523;DHT22;1272;53.332;9.860;2023-08-07T15:46:02;17.70;99.90
2523;DHT22;1272;53.332;9.860;2023-08-07T15:48:28;17.70;99.90
2523;DHT22;1272;53.332;9.860;2023-08-07T15:50:54;17.50;99.90
2523;DHT22;1272;53.332;9.860;2023-08-07T15:53:20;17.30;1.00
2523;DHT22;1272;53.332;9.860;2023-08-07T15:55:46;17.20;99.90
2523;DHT22;1272;53.332;9.860;2023-08-07T15:58:11;17.00;99.90
2523;DHT22;1272;53.332;9.860;2023-08-07T16:00:37;16.90;99.90
2523;DHT22;1272;53.332;9.860;2023-08-07T16:03:04;17.00;99.90
2523;DHT22;1272;53.332;9.860;2023-08-07T16:05:31;17.10;99.90
2523;DHT22;1272;53.332;9.860;2023-08-07T16:07:58;17.10;99.90
2523;DHT22;1272;53.332;9.860;2023-08-07T16:10:24;17.10;99.90